sensor_id;sensor_type;location;lat;lon;timestamp;temperature;humidity
11991;DHT22;6055;52.522;13.446;2022-11-20T00:02:00;1.10;99.90
11991;DHT22;6055;52.522;13.446;2022-11-20T00:04:26;1.10;99.90
11991;DHT22;6055;52.522;13.446;2022-11-20T00:06:51;1.10;99.90
11991;DHT22;6055;52.522;13.446;2022-11-20T00:09:17;1.10;99.90
11991;DHT22;6055;52.522;13.446;2022-11-20T00:11:42;1.10;99.90
11991;DHT22;6055;52.522;13.446;2022-11-20T00:14:09;1.00;99.90
11991;DHT22;6055;52.522;13.446;2022-11-20T00:16:35;1.10;99.90
11991;DHT22;6055;52.522;13.446;2022-11-20T00:19:01;1.10;99.90
11991;DHT22;6055;52.522;13.446;2022-11-20T00:21:27;1.10;99.90
11991;DHT22;6055;52.522;13.446;2022-11-20T00:23:55;1.00;99.90
11991;DHT22;6055;52.522;13.446;2022-11-20T00:26:21;1.00;99.90
11991;DHT22;6055;52.522;13.446;2022-11-20T00:28:52;1.00;99.90
11991;DHT22;6055;52.522;13.446;2022-11-20T00:31:19;1.10;99.90
11991;DHT22;6055;52.522;13.446;2022-11-20T00:33:44;1.10;99.90
11991;DHT22;6055;52.522;13.446;2022-11-20T00:36:15;1.10;99.90
11991;DHT22;6055;52.522;13.446;2022-11-20T00:38:42;1.10;99.90
11991;DHT22;6055;52.522;13.446;2022-11-20T00:41:10;1.10;99.90
11991;DHT22;6055;52.522;13.446;2022-11-20T00:43:37;1.10;99.90
11991;DHT22;6055;52.522;13.446;2022-11-20T00:46:05;1.10;99.90
11991;DHT22;6055;52.522;13.446;2022-11-20T00:48:31;1.10;99.90
11991;DHT22;6055;52.522;13.446;2022-11-20T00:50:57;1.10;99.90
11991;DHT22;6055;52.522;13.446;2022-11-20T00:53:23;1.10;99.90
11991;DHT22;6055;52.522;13.446;2022-11-20T00:55:57;1.10;99.90
11991;DHT22;6055;52.522;13.446;2022-11-20T00:58:24;1.10;99.90
11991;DHT22;6055;52.522;13.446;2022-11-20T01:00:50;1.10;99.90
11991;DHT22;6055;52.522;13.446;2022-11-20T01:03:17;1.10;99.90
11991;DHT22;6055;52.522;13.446;2022-11-20T01:05:43;1.10;99.90
11991;DHT22;6055;52.522;13.446;2022-11-20T01:08:08;1.10;99.90
11991;DHT22;6055;52.522;13.446;2022-11-20T01:10:34;1.10;99.90
11991;DHT22;6055;52.522;13.446;2022-11-20T01:12:59;1.10;99.90
11991;DHT22;6055;52.522;13.446;2022-11-20T01:15:43;1.10;99.90
11991;DHT22;6055;52.522;13.446;2022-11-20T01:18:09;1.10;99.90
11991;DHT22;6055;52.522;13.446;2022-11-20T01:20:37;1.10;99.90
11991;DHT22;6055;52.522;13.446;2022-11-20T01:23:03;1.20;99.90
11991;DHT22;6055;52.522;13.446;2022-11-20T01:25:29;1.20;99.90
11991;DHT22;6055;52.522;13.446;2022-11-20T01:27:55;1.10;99.90
11991;DHT22;6055;52.522;13.446;2022-11-20T01:30:21;1.10;99.90
11991;DHT22;6055;52.522;13.446;2022-11-20T01:32:46;1.10;99.90
11991;DHT22;6055;52.522;13.446;2022-11-20T01:35:11;1.10;99.90
11991;DHT22;6055;52.522;13.446;2022-11-20T01:37:37;1.10;99.90
11991;DHT22;6055;52.522;13.446;2022-11-20T01:40:03;1.20;99.90
11991;DHT22;6055;52.522;13.446;2022-11-20T01:42:28;1.20;99.90
11991;DHT22;6055;52.522;13.446;2022-11-20T01:48:13;1.20;99.90
11991;DHT22;6055;52.522;13.446;2022-11-20T01:50:40;1.20;99.90
11991;DHT22;6055;52.522;13.446;2022-11-20T01:53:09;1.20;99.90
11991;DHT22;6055;52.522;13.446;2022-11-20T01:55:47;1.20;99.90
11991;DHT22;6055;52.522;13.446;2022-11-20T01:58:15;1.10;99.90
11991;DHT22;6055;52.522;13.446;2022-11-20T02:00:41;1.20;99.90
11991;DHT22;6055;52.522;13.446;2022-11-20T02:03:11;1.20;99.90
11991;DHT22;6055;52.522;13.446;2022-11-20T02:08:41;1.10;99.90
11991;DHT22;6055;52.522;13.446;2022-11-20T02:11:06;1.10;99.90
11991;DHT22;6055;52.522;13.446;2022-11-20T02:13:33;1.20;99.90
11991;DHT22;6055;52.522;13.446;2022-11-20T02:16:11;1.10;99.90
11991;DHT22;6055;52.522;13.446;2022-11-20T02:18:38;1.20;99.90
11991;DHT22;6055;52.522;13.446;2022-11-20T02:26:31;1.10;99.90
11991;DHT22;6055;52.522;13.446;2022-11-20T02:28:58;1.10;99.90
11991;DHT22;6055;52.522;13.446;2022-11-20T02:31:24;1.10;99.90
11991;DHT22;6055;52.522;13.446;2022-11-20T02:33:55;1.10;99.90
11991;DHT22;6055;52.522;13.446;2022-11-20T02:36:21;1.10;99.90
11991;DHT22;6055;52.522;13.446;2022-11-20T02:38:47;1.00;99.90
11991;DHT22;6055;52.522;13.446;2022-11-20T02:41:13;1.00;99.90
11991;DHT22;6055;52.522;13.446;2022-11-20T02:43:39;1.00;99.90
11991;DHT22;6055;52.522;13.446;2022-11-20T02:46:08;1.00;99.90
11991;DHT22;6055;52.522;13.446;2022-11-20T02:48:33;1.00;99.90
11991;DHT22;6055;52.522;13.446;2022-11-20T02:50:59;1.00;99.90
11991;DHT22;6055;52.522;13.446;2022-11-20T02:53:24;1.00;99.90
11991;DHT22;6055;52.522;13.446;2022-11-20T02:55:50;0.90;99.90
11991;DHT22;6055;52.522;13.446;2022-11-20T02:58:15;0.90;99.90
11991;DHT22;6055;52.522;13.446;2022-11-20T03:00:41;0.90;99.90
11991;DHT22;6055;52.522;13.446;2022-11-20T03:03:06;0.90;99.90
11991;DHT22;6055;52.522;13.446;2022-11-20T03:05:32;0.90;99.90
11991;DHT22;6055;52.522;13.446;2022-11-20T03:07:57;0.90;99.90
11991;DHT22;6055;52.522;13.446;2022-11-20T03:10:23;0.90;99.90
11991;DHT22;6055;52.522;13.446;2022-11-20T03:12:55;0.90;99.90
11991;DHT22;6055;52.522;13.446;2022-11-20T03:15:23;0.80;99.90
11991;DHT22;6055;52.522;13.446;2022-11-20T03:17:48;0.90;99.90
11991;DHT22;6055;52.522;13.446;2022-11-20T03:20:14;0.90;99.90
11991;DHT22;6055;52.522;13.446;2022-11-20T03:22:40;0.90;99.90
11991;DHT22;6055;52.522;13.446;2022-11-20T03:25:05;0.90;99.90
11991;DHT22;6055;52.522;13.446;2022-11-20T03:27:34;0.90;99.90
11991;DHT22;6055;52.522;13.446;2022-11-20T03:30:00;0.90;99.90
11991;DHT22;6055;52.522;13.446;2022-11-20T03:32:25;0.80;99.90
11991;DHT22;6055;52.522;13.446;2022-11-20T03:34:51;0.90;99.90
11991;DHT22;6055;52.522;13.446;2022-11-20T03:37:16;0.90;99.90
11991;DHT22;6055;52.522;13.446;2022-11-20T03:39:42;0.90;99.90
11991;DHT22;6055;52.522;13.446;2022-11-20T03:42:08;0.90;99.90
11991;DHT22;6055;52.522;13.446;2022-11-20T03:44:53;0.90;99.90
11991;DHT22;6055;52.522;13.446;2022-11-20T03:47:19;0.90;99.90
11991;DHT22;6055;52.522;13.446;2022-11-20T03:49:44;0.90;99.90
11991;DHT22;6055;52.522;13.446;2022-11-20T03:52:10;1.00;99.90
11991;DHT22;6055;52.522;13.446;2022-11-20T03:54:35;1.00;99.90
11991;DHT22;6055;52.522;13.446;2022-11-20T03:57:01;1.00;99.90
11991;DHT22;6055;52.522;13.446;2022-11-20T03:59:26;0.90;99.90
11991;DHT22;6055;52.522;13.446;2022-11-20T04:01:52;0.90;99.90
11991;DHT22;6055;52.522;13.446;2022-11-20T04:04:17;1.00;99.90
11991;DHT22;6055;52.522;13.446;2022-11-20T04:06:43;1.00;99.90
11991;DHT22;6055;52.522;13.446;2022-11-20T04:09:08;0.90;99.90
11991;DHT22;6055;52.522;13.446;2022-11-20T04:11:36;0.90;99.90
11991;DHT22;6055;52.522;13.446;2022-11-20T04:14:06;0.90;99.90
11991;DHT22;6055;52.522;13.446;2022-11-20T04:16:34;0.90;99.90
11991;DHT22;6055;52.522;13.446;2022-11-20T04:19:01;0.90;99.90
11991;DHT22;6055;52.522;13.446;2022-11-20T04:21:28;0.90;99.90
11991;DHT22;6055;52.522;13.446;2022-11-20T04:23:54;0.80;99.90
11991;DHT22;6055;52.522;13.446;2022-11-20T04:26:22;0.80;99.90
11991;DHT22;6055;52.522;13.446;2022-11-20T04:28:48;0.90;99.90
11991;DHT22;6055;52.522;13.446;2022-11-20T04:31:16;0.80;99.90
11991;DHT22;6055;52.522;13.446;2022-11-20T04:33:42;0.80;99.90
11991;DHT22;6055;52.522;13.446;2022-11-20T04:36:12;0.80;99.90
11991;DHT22;6055;52.522;13.446;2022-11-20T04:38:39;0.80;99.90
11991;DHT22;6055;52.522;13.446;2022-11-20T04:41:07;0.70;99.90
11991;DHT22;6055;52.522;13.446;2022-11-20T04:43:33;0.70;99.90
11991;DHT22;6055;52.522;13.446;2022-11-20T04:46:00;0.80;99.90
11991;DHT22;6055;52.522;13.446;2022-11-20T04:48:26;0.70;99.90
11991;DHT22;6055;52.522;13.446;2022-11-20T04:50:52;0.70;99.90
11991;DHT22;6055;52.522;13.446;2022-11-20T04:53:18;0.70;99.90
11991;DHT22;6055;52.522;13.446;2022-11-20T04:55:44;0.70;99.90
11991;DHT22;6055;52.522;13.446;2022-11-20T04:58:10;0.70;99.90
11991;DHT22;6055;52.522;13.446;2022-11-20T05:00:35;0.70;99.90
11991;DHT22;6055;52.522;13.446;2022-11-20T05:03:01;0.70;99.90
11991;DHT22;6055;52.522;13.446;2022-11-20T05:05:26;0.60;99.90
11991;DHT22;6055;52.522;13.446;2022-11-20T05:07:52;0.70;99.90
11991;DHT22;6055;52.522;13.446;2022-11-20T05:10:17;0.70;99.90
11991;DHT22;6055;52.522;13.446;2022-11-20T05:12:43;0.70;99.90
11991;DHT22;6055;52.522;13.446;2022-11-20T05:15:09;0.70;99.90
11991;DHT22;6055;52.522;13.446;2022-11-20T05:17:34;0.70;99.90
11991;DHT22;6055;52.522;13.446;2022-11-20T05:20:00;0.70;99.90
11991;DHT22;6055;52.522;13.446;2022-11-20T05:22:25;0.70;99.90
11991;DHT22;6055;52.522;13.446;2022-11-20T05:24:51;0.70;99.90
11991;DHT22;6055;52.522;13.446;2022-11-20T05:27:16;0.60;99.90
11991;DHT22;6055;52.522;13.446;2022-11-20T05:29:42;0.70;99.90
11991;DHT22;6055;52.522;13.446;2022-11-20T05:32:07;0.70;99.90
11991;DHT22;6055;52.522;13.446;2022-11-20T05:34:35;0.70;99.90
11991;DHT22;6055;52.522;13.446;2022-11-20T05:37:00;0.70;99.90
11991;DHT22;6055;52.522;13.446;2022-11-20T05:39:26;0.70;99.90
11991;DHT22;6055;52.522;13.446;2022-11-20T05:41:51;0.70;99.90
11991;DHT22;6055;52.522;13.446;2022-11-20T05:44:37;0.80;99.90
11991;DHT22;6055;52.522;13.446;2022-11-20T05:47:02;0.80;99.90
11991;DHT22;6055;52.522;13.446;2022-11-20T05:49:28;0.70;99.90
11991;DHT22;6055;52.522;13.446;2022-11-20T05:51:53;0.80;99.90
11991;DHT22;6055;52.522;13.446;2022-11-20T05:54:19;0.80;99.90
11991;DHT22;6055;52.522;13.446;2022-11-20T05:56:44;0.80;99.90
11991;DHT22;6055;52.522;13.446;2022-11-20T05:59:10;0.80;99.90
11991;DHT22;6055;52.522;13.446;2022-11-20T06:01:35;0.80;99.90
11991;DHT22;6055;52.522;13.446;2022-11-20T06:04:01;0.80;99.90
11991;DHT22;6055;52.522;13.446;2022-11-20T06:06:27;0.80;99.90
11991;DHT22;6055;52.522;13.446;2022-11-20T06:08:52;0.80;99.90
11991;DHT22;6055;52.522;13.446;2022-11-20T06:11:18;0.80;99.90
11991;DHT22;6055;52.522;13.446;2022-11-20T06:13:44;0.80;99.90
11991;DHT22;6055;52.522;13.446;2022-11-20T06:16:12;0.80;99.90
11991;DHT22;6055;52.522;13.446;2022-11-20T06:18:38;0.90;99.90
11991;DHT22;6055;52.522;13.446;2022-11-20T06:23:37;0.90;99.90
11991;DHT22;6055;52.522;13.446;2022-11-20T06:26:05;0.90;99.90
11991;DHT22;6055;52.522;13.446;2022-11-20T06:28:30;0.90;99.90
11991;DHT22;6055;52.522;13.446;2022-11-20T06:30:56;0.90;99.90
11991;DHT22;6055;52.522;13.446;2022-11-20T06:33:22;0.90;99.90
11991;DHT22;6055;52.522;13.446;2022-11-20T06:35:47;0.90;99.90
11991;DHT22;6055;52.522;13.446;2022-11-20T06:38:13;0.80;99.90
11991;DHT22;6055;52.522;13.446;2022-11-20T06:40:42;0.80;99.90
11991;DHT22;6055;52.522;13.446;2022-11-20T06:43:09;0.80;99.90
11991;DHT22;6055;52.522;13.446;2022-11-20T06:45:35;0.80;99.90
11991;DHT22;6055;52.522;13.446;2022-11-20T06:48:00;0.80;99.90
11991;DHT22;6055;52.522;13.446;2022-11-20T06:50:26;0.80;99.90
11991;DHT22;6055;52.522;13.446;2022-11-20T06:52:51;0.80;99.90
11991;DHT22;6055;52.522;13.446;2022-11-20T06:55:17;0.80;99.90
11991;DHT22;6055;52.522;13.446;2022-11-20T06:57:42;0.80;99.90
11991;DHT22;6055;52.522;13.446;2022-11-20T07:00:08;0.80;99.90
11991;DHT22;6055;52.522;13.446;2022-11-20T07:02:34;0.80;99.90
11991;DHT22;6055;52.522;13.446;2022-11-20T07:04:59;0.80;99.90
11991;DHT22;6055;52.522;13.446;2022-11-20T07:07:25;0.80;99.90
11991;DHT22;6055;52.522;13.446;2022-11-20T07:09:50;0.80;99.90
11991;DHT22;6055;52.522;13.446;2022-11-20T07:12:16;0.80;99.90
11991;DHT22;6055;52.522;13.446;2022-11-20T07:14:41;0.80;99.90
11991;DHT22;6055;52.522;13.446;2022-11-20T07:17:07;0.80;99.90
11991;DHT22;6055;52.522;13.446;2022-11-20T07:19:32;0.80;99.90
11991;DHT22;6055;52.522;13.446;2022-11-20T07:21:58;0.80;99.90
11991;DHT22;6055;52.522;13.446;2022-11-20T07:24:23;0.90;99.90
11991;DHT22;6055;52.522;13.446;2022-11-20T07:26:49;0.80;99.90
11991;DHT22;6055;52.522;13.446;2022-11-20T07:29:15;0.80;99.90
11991;DHT22;6055;52.522;13.446;2022-11-20T07:31:42;0.80;99.90
11991;DHT22;6055;52.522;13.446;2022-11-20T07:34:07;0.80;99.90
11991;DHT22;6055;52.522;13.446;2022-11-20T07:36:33;0.80;99.90
11991;DHT22;6055;52.522;13.446;2022-11-20T07:38:58;0.80;99.90
11991;DHT22;6055;52.522;13.446;2022-11-20T07:41:24;0.80;99.90
11991;DHT22;6055;52.522;13.446;2022-11-20T07:43:49;0.90;99.90
11991;DHT22;6055;52.522;13.446;2022-11-20T07:46:15;0.80;99.90
11991;DHT22;6055;52.522;13.446;2022-11-20T07:48:40;0.80;99.90
11991;DHT22;6055;52.522;13.446;2022-11-20T07:51:06;0.90;99.90
11991;DHT22;6055;52.522;13.446;2022-11-20T07:53:31;0.90;99.90
11991;DHT22;6055;52.522;13.446;2022-11-20T07:56:00;0.90;99.90
11991;DHT22;6055;52.522;13.446;2022-11-20T07:58:26;0.90;99.90
11991;DHT22;6055;52.522;13.446;2022-11-20T08:00:53;0.90;99.90
11991;DHT22;6055;52.522;13.446;2022-11-20T08:03:19;0.90;99.90
11991;DHT22;6055;52.522;13.446;2022-11-20T08:05:44;0.90;99.90
11991;DHT22;6055;52.522;13.446;2022-11-20T08:08:10;0.80;99.90
11991;DHT22;6055;52.522;13.446;2022-11-20T08:10:35;0.80;99.90
11991;DHT22;6055;52.522;13.446;2022-11-20T08:13:01;0.80;99.90
11991;DHT22;6055;52.522;13.446;2022-11-20T08:15:49;0.70;99.90
11991;DHT22;6055;52.522;13.446;2022-11-20T08:18:16;0.80;99.90
11991;DHT22;6055;52.522;13.446;2022-11-20T08:20:42;0.80;99.90
11991;DHT22;6055;52.522;13.446;2022-11-20T08:23:08;0.90;99.90
11991;DHT22;6055;52.522;13.446;2022-11-20T08:25:35;0.90;99.90
11991;DHT22;6055;52.522;13.446;2022-11-20T08:28:04;0.90;99.90
11991;DHT22;6055;52.522;13.446;2022-11-20T08:30:30;0.90;99.90
11991;DHT22;6055;52.522;13.446;2022-11-20T08:33:01;1.00;99.90
11991;DHT22;6055;52.522;13.446;2022-11-20T08:35:26;1.10;99.90
11991;DHT22;6055;52.522;13.446;2022-11-20T08:37:52;1.10;99.90
11991;DHT22;6055;52.522;13.446;2022-11-20T08:40:17;1.10;99.90
11991;DHT22;6055;52.522;13.446;2022-11-20T08:42:50;1.00;99.90
11991;DHT22;6055;52.522;13.446;2022-11-20T08:45:17;0.90;99.90
11991;DHT22;6055;52.522;13.446;2022-11-20T08:47:43;1.00;99.90
11991;DHT22;6055;52.522;13.446;2022-11-20T08:50:10;1.00;99.90
11991;DHT22;6055;52.522;13.446;2022-11-20T08:52:36;1.00;99.90
11991;DHT22;6055;52.522;13.446;2022-11-20T08:55:02;1.00;99.90
11991;DHT22;6055;52.522;13.446;2022-11-20T08:57:30;1.00;99.90
11991;DHT22;6055;52.522;13.446;2022-11-20T08:59:56;1.10;99.90
11991;DHT22;6055;52.522;13.446;2022-11-20T09:02:21;1.10;99.90
11991;DHT22;6055;52.522;13.446;2022-11-20T09:04:47;1.20;99.90
11991;DHT22;6055;52.522;13.446;2022-11-20T09:07:12;1.20;99.90
11991;DHT22;6055;52.522;13.446;2022-11-20T09:09:38;1.20;99.90
11991;DHT22;6055;52.522;13.446;2022-11-20T09:12:03;1.20;99.90
11991;DHT22;6055;52.522;13.446;2022-11-20T09:14:29;1.10;99.90
11991;DHT22;6055;52.522;13.446;2022-11-20T09:16:56;1.10;99.90
11991;DHT22;6055;52.522;13.446;2022-11-20T09:19:21;1.10;99.90
11991;DHT22;6055;52.522;13.446;2022-11-20T09:21:48;1.10;99.90
11991;DHT22;6055;52.522;13.446;2022-11-20T09:24:14;1.10;99.90
11991;DHT22;6055;52.522;13.446;2022-11-20T09:26:39;1.00;99.90
11991;DHT22;6055;52.522;13.446;2022-11-20T09:29:04;1.00;99.90
11991;DHT22;6055;52.522;13.446;2022-11-20T09:31:31;1.10;99.90
11991;DHT22;6055;52.522;13.446;2022-11-20T09:33:56;1.00;99.90
11991;DHT22;6055;52.522;13.446;2022-11-20T09:36:22;1.10;99.90
11991;DHT22;6055;52.522;13.446;2022-11-20T09:38:47;1.00;99.90
11991;DHT22;6055;52.522;13.446;2022-11-20T09:41:45;1.00;99.90
11991;DHT22;6055;52.522;13.446;2022-11-20T09:47:04;1.20;99.90
11991;DHT22;6055;52.522;13.446;2022-11-20T09:52:27;1.20;99.90
11991;DHT22;6055;52.522;13.446;2022-11-20T09:54:55;1.20;99.90
11991;DHT22;6055;52.522;13.446;2022-11-20T09:57:25;1.20;99.90
11991;DHT22;6055;52.522;13.446;2022-11-20T10:00:02;1.20;99.90
11991;DHT22;6055;52.522;13.446;2022-11-20T10:02:37;1.30;99.90
11991;DHT22;6055;52.522;13.446;2022-11-20T10:05:11;1.30;99.90
11991;DHT22;6055;52.522;13.446;2022-11-20T10:08:16;1.30;99.90
11991;DHT22;6055;52.522;13.446;2022-11-20T10:13:29;1.40;99.90
11991;DHT22;6055;52.522;13.446;2022-11-20T10:16:15;1.40;99.90
11991;DHT22;6055;52.522;13.446;2022-11-20T10:18:54;1.40;99.90
11991;DHT22;6055;52.522;13.446;2022-11-20T10:21:41;1.50;99.90
11991;DHT22;6055;52.522;13.446;2022-11-20T10:26:58;1.50;99.90
11991;DHT22;6055;52.522;13.446;2022-11-20T10:29:36;1.40;99.90
11991;DHT22;6055;52.522;13.446;2022-11-20T10:32:10;1.40;99.90
11991;DHT22;6055;52.522;13.446;2022-11-20T10:34:50;1.40;99.90
11991;DHT22;6055;52.522;13.446;2022-11-20T10:37:28;1.40;99.90
11991;DHT22;6055;52.522;13.446;2022-11-20T10:40:00;1.30;99.90
11991;DHT22;6055;52.522;13.446;2022-11-20T10:42:35;1.40;99.90
11991;DHT22;6055;52.522;13.446;2022-11-20T10:50:31;1.70;99.90
11991;DHT22;6055;52.522;13.446;2022-11-20T10:53:31;1.70;99.90
11991;DHT22;6055;52.522;13.446;2022-11-20T10:56:05;1.80;99.90
11991;DHT22;6055;52.522;13.446;2022-11-20T11:01:26;1.80;99.90
11991;DHT22;6055;52.522;13.446;2022-11-20T11:03:53;1.90;99.90
11991;DHT22;6055;52.522;13.446;2022-11-20T11:06:40;1.90;99.90
11991;DHT22;6055;52.522;13.446;2022-11-20T11:09:32;2.00;99.90
11991;DHT22;6055;52.522;13.446;2022-11-20T11:11:57;2.10;99.90
11991;DHT22;6055;52.522;13.446;2022-11-20T11:14:26;2.20;99.90
11991;DHT22;6055;52.522;13.446;2022-11-20T11:16:57;2.30;99.90
11991;DHT22;6055;52.522;13.446;2022-11-20T11:19:23;2.40;99.90
11991;DHT22;6055;52.522;13.446;2022-11-20T11:21:55;2.40;99.90
11991;DHT22;6055;52.522;13.446;2022-11-20T11:24:24;2.40;99.90
11991;DHT22;6055;52.522;13.446;2022-11-20T11:26:53;2.20;99.90
11991;DHT22;6055;52.522;13.446;2022-11-20T11:29:20;2.10;99.90
11991;DHT22;6055;52.522;13.446;2022-11-20T11:31:45;2.00;99.90
11991;DHT22;6055;52.522;13.446;2022-11-20T11:34:15;2.00;99.90
11991;DHT22;6055;52.522;13.446;2022-11-20T11:36:42;1.90;99.90
11991;DHT22;6055;52.522;13.446;2022-11-20T11:39:16;1.90;99.90
11991;DHT22;6055;52.522;13.446;2022-11-20T11:41:43;2.00;99.90
11991;DHT22;6055;52.522;13.446;2022-11-20T11:44:28;1.90;99.90
11991;DHT22;6055;52.522;13.446;2022-11-20T11:52:28;2.00;99.90
11991;DHT22;6055;52.522;13.446;2022-11-20T11:54:57;2.00;99.90
11991;DHT22;6055;52.522;13.446;2022-11-20T12:00:14;1.90;99.90
11991;DHT22;6055;52.522;13.446;2022-11-20T12:12:51;1.50;99.90
11991;DHT22;6055;52.522;13.446;2022-11-20T12:15:33;1.50;99.90
11991;DHT22;6055;52.522;13.446;2022-11-20T12:17:59;1.50;99.90
11991;DHT22;6055;52.522;13.446;2022-11-20T12:20:29;1.50;99.90
11991;DHT22;6055;52.522;13.446;2022-11-20T12:23:21;1.50;99.90
11991;DHT22;6055;52.522;13.446;2022-11-20T12:25:51;1.60;99.90
11991;DHT22;6055;52.522;13.446;2022-11-20T12:28:30;1.70;99.90
11991;DHT22;6055;52.522;13.446;2022-11-20T12:31:14;1.60;99.90
11991;DHT22;6055;52.522;13.446;2022-11-20T12:34:12;1.80;99.90
11991;DHT22;6055;52.522;13.446;2022-11-20T12:37:02;1.80;99.90
11991;DHT22;6055;52.522;13.446;2022-11-20T12:39:48;1.90;99.90
11991;DHT22;6055;52.522;13.446;2022-11-20T12:45:22;2.10;99.90
11991;DHT22;6055;52.522;13.446;2022-11-20T12:51:00;2.10;99.90
11991;DHT22;6055;52.522;13.446;2022-11-20T12:56:29;2.20;99.90
11991;DHT22;6055;52.522;13.446;2022-11-20T12:59:03;2.20;99.90
11991;DHT22;6055;52.522;13.446;2022-11-20T13:01:44;2.30;99.90
11991;DHT22;6055;52.522;13.446;2022-11-20T13:07:03;2.30;99.90
11991;DHT22;6055;52.522;13.446;2022-11-20T13:09:31;2.30;99.90
11991;DHT22;6055;52.522;13.446;2022-11-20T13:12:23;2.40;99.90
11991;DHT22;6055;52.522;13.446;2022-11-20T13:14:58;2.40;99.90
11991;DHT22;6055;52.522;13.446;2022-11-20T13:17:45;2.40;99.90
11991;DHT22;6055;52.522;13.446;2022-11-20T13:20:16;2.40;99.90
11991;DHT22;6055;52.522;13.446;2022-11-20T13:22:49;2.40;99.90
11991;DHT22;6055;52.522;13.446;2022-11-20T13:25:30;2.20;99.90
11991;DHT22;6055;52.522;13.446;2022-11-20T13:27:58;2.20;99.90
11991;DHT22;6055;52.522;13.446;2022-11-20T13:30:29;2.20;99.90
11991;DHT22;6055;52.522;13.446;2022-11-20T13:32:55;2.10;99.90
11991;DHT22;6055;52.522;13.446;2022-11-20T13:35:30;2.00;99.90
11991;DHT22;6055;52.522;13.446;2022-11-20T13:38:12;2.00;99.90
11991;DHT22;6055;52.522;13.446;2022-11-20T13:40:58;2.00;99.90
11991;DHT22;6055;52.522;13.446;2022-11-20T13:43:35;2.00;99.90
11991;DHT22;6055;52.522;13.446;2022-11-20T13:46:04;2.10;99.90
11991;DHT22;6055;52.522;13.446;2022-11-20T13:48:41;2.10;99.90
11991;DHT22;6055;52.522;13.446;2022-11-20T13:51:29;2.10;99.90
11991;DHT22;6055;52.522;13.446;2022-11-20T13:54:21;2.20;99.90
11991;DHT22;6055;52.522;13.446;2022-11-20T13:59:57;2.00;99.90
11991;DHT22;6055;52.522;13.446;2022-11-20T14:02:26;1.90;99.90
11991;DHT22;6055;52.522;13.446;2022-11-20T14:04:55;1.90;99.90
11991;DHT22;6055;52.522;13.446;2022-11-20T14:07:25;1.90;99.90
11991;DHT22;6055;52.522;13.446;2022-11-20T14:09:54;1.90;99.90
11991;DHT22;6055;52.522;13.446;2022-11-20T14:12:26;1.80;99.90
11991;DHT22;6055;52.522;13.446;2022-11-20T14:14:54;1.80;99.90
11991;DHT22;6055;52.522;13.446;2022-11-20T14:17:30;1.80;99.90
11991;DHT22;6055;52.522;13.446;2022-11-20T14:20:01;1.80;99.90
11991;DHT22;6055;52.522;13.446;2022-11-20T14:22:28;1.80;99.90
11991;DHT22;6055;52.522;13.446;2022-11-20T14:39:35;1.70;99.90
11991;DHT22;6055;52.522;13.446;2022-11-20T14:42:02;1.80;99.90
11991;DHT22;6055;52.522;13.446;2022-11-20T14:44:31;1.80;99.90
11991;DHT22;6055;52.522;13.446;2022-11-20T14:46:59;1.80;99.90
11991;DHT22;6055;52.522;13.446;2022-11-20T14:49:25;1.80;99.90
11991;DHT22;6055;52.522;13.446;2022-11-20T14:52:02;1.70;99.90
11991;DHT22;6055;52.522;13.446;2022-11-20T14:54:28;1.60;99.90
11991;DHT22;6055;52.522;13.446;2022-11-20T14:56:57;1.50;99.90
11991;DHT22;6055;52.522;13.446;2022-11-20T14:59:25;1.50;99.90
11991;DHT22;6055;52.522;13.446;2022-11-20T15:02:10;1.50;99.90
11991;DHT22;6055;52.522;13.446;2022-11-20T15:04:50;1.50;99.90
11991;DHT22;6055;52.522;13.446;2022-11-20T15:07:37;1.50;99.90
11991;DHT22;6055;52.522;13.446;2022-11-20T15:10:05;1.50;99.90
11991;DHT22;6055;52.522;13.446;2022-11-20T15:12:33;1.50;99.90
11991;DHT22;6055;52.522;13.446;2022-11-20T15:15:00;1.50;99.90
11991;DHT22;6055;52.522;13.446;2022-11-20T15:17:26;1.50;99.90
11991;DHT22;6055;52.522;13.446;2022-11-20T15:19:53;1.40;99.90
11991;DHT22;6055;52.522;13.446;2022-11-20T15:22:19;1.50;99.90
11991;DHT22;6055;52.522;13.446;2022-11-20T15:24:45;1.50;99.90
11991;DHT22;6055;52.522;13.446;2022-11-20T15:27:11;1.50;99.90
11991;DHT22;6055;52.522;13.446;2022-11-20T15:29:36;1.50;99.90
11991;DHT22;6055;52.522;13.446;2022-11-20T15:32:02;1.50;99.90
11991;DHT22;6055;52.522;13.446;2022-11-20T15:34:28;1.50;99.90
11991;DHT22;6055;52.522;13.446;2022-11-20T15:36:53;1.50;99.90
11991;DHT22;6055;52.522;13.446;2022-11-20T15:39:20;1.50;99.90
11991;DHT22;6055;52.522;13.446;2022-11-20T15:41:45;1.50;99.90
11991;DHT22;6055;52.522;13.446;2022-11-20T15:44:11;1.50;99.90
11991;DHT22;6055;52.522;13.446;2022-11-20T15:46:39;1.50;99.90
11991;DHT22;6055;52.522;13.446;2022-11-20T15:49:12;1.50;99.90
11991;DHT22;6055;52.522;13.446;2022-11-20T15:51:41;1.50;99.90
11991;DHT22;6055;52.522;13.446;2022-11-20T15:54:19;1.50;99.90
11991;DHT22;6055;52.522;13.446;2022-11-20T15:56:46;1.50;99.90
11991;DHT22;6055;52.522;13.446;2022-11-20T15:59:12;1.50;99.90
11991;DHT22;6055;52.522;13.446;2022-11-20T16:01:39;1.50;99.90
11991;DHT22;6055;52.522;13.446;2022-11-20T16:04:12;1.50;99.90
11991;DHT22;6055;52.522;13.446;2022-11-20T16:06:38;1.50;99.90
11991;DHT22;6055;52.522;13.446;2022-11-20T16:09:08;1.40;99.90
11991;DHT22;6055;52.522;13.446;2022-11-20T16:11:34;1.30;99.90
11991;DHT22;6055;52.522;13.446;2022-11-20T16:14:03;1.30;99.90
11991;DHT22;6055;52.522;13.446;2022-11-20T16:16:47;1.30;99.90
11991;DHT22;6055;52.522;13.446;2022-11-20T16:19:13;1.20;99.90
11991;DHT22;6055;52.522;13.446;2022-11-20T16:21:39;1.20;99.90
11991;DHT22;6055;52.522;13.446;2022-11-20T16:24:08;1.20;99.90
11991;DHT22;6055;52.522;13.446;2022-11-20T16:26:35;1.20;99.90
11991;DHT22;6055;52.522;13.446;2022-11-20T16:29:01;1.20;99.90
11991;DHT22;6055;52.522;13.446;2022-11-20T16:31:28;1.10;99.90
11991;DHT22;6055;52.522;13.446;2022-11-20T16:33:58;1.10;99.90
11991;DHT22;6055;52.522;13.446;2022-11-20T16:36:27;1.10;99.90
11991;DHT22;6055;52.522;13.446;2022-11-20T16:39:00;1.00;99.90
11991;DHT22;6055;52.522;13.446;2022-11-20T16:41:29;1.00;99.90
11991;DHT22;6055;52.522;13.446;2022-11-20T16:43:57;1.00;99.90
11991;DHT22;6055;52.522;13.446;2022-11-20T16:46:26;1.00;99.90
11991;DHT22;6055;52.522;13.446;2022-11-20T16:49:01;1.00;99.90
11991;DHT22;6055;52.522;13.446;2022-11-20T16:51:28;0.90;99.90
11991;DHT22;6055;52.522;13.446;2022-11-20T16:53:54;0.90;99.90
11991;DHT22;6055;52.522;13.446;2022-11-20T16:56:22;0.90;99.90
11991;DHT22;6055;52.522;13.446;2022-11-20T16:58:49;0.90;99.90
11991;DHT22;6055;52.522;13.446;2022-11-20T17:01:17;0.90;99.90
11991;DHT22;6055;52.522;13.446;2022-11-20T17:03:46;0.90;99.90
11991;DHT22;6055;52.522;13.446;2022-11-20T17:06:17;1.00;99.90
11991;DHT22;6055;52.522;13.446;2022-11-20T17:08:44;1.00;99.90
11991;DHT22;6055;52.522;13.446;2022-11-20T17:11:11;1.00;99.90
11991;DHT22;6055;52.522;13.446;2022-11-20T17:13:38;1.00;99.90
11991;DHT22;6055;52.522;13.446;2022-11-20T17:16:08;1.00;99.90
11991;DHT22;6055;52.522;13.446;2022-11-20T17:18:34;1.00;99.90